Time;durP1;ratioP1;P1;durP2;ratioP2;P2;SDS_P1;SDS_P2;PMS_P1;PMS_P2;Temp;Humidity;BMP_temperature;BMP_pressure;BME280_temperature;BME280_humidity;BME280_pressure;Samples;Min_cycle;Max_cycle;Signal;HPM_P1;HPM_P2
2022/09/29 00:04:46;;;;;;;4.30;2.42;;;;;;;11.62;100.00;97576.77;4162380;84;21044;-84
2022/09/29 00:10:48;;;;;;;4.67;2.77;;;;;;;11.56;100.00;97572.34;4175606;84;21056;-84
2022/09/29 00:16:50;;;;;;;4.62;3.35;;;;;;;11.52;100.00;97573.00;4135797;84;21029;-83
2022/09/29 00:22:51;;;;;;;9.15;4.00;;;;;;;11.51;100.00;97578.28;4200397;83;21065;-84
2022/09/29 00:28:55;;;;;;;8.58;5.03;;;;;;;11.55;100.00;97585.87;4195421;83;21035;-84
2022/09/29 00:34:57;;;;;;;6.42;4.75;;;;;;;11.59;100.00;97589.94;4125671;85;21032;-84
2022/09/29 00:41:03;;;;;;;8.78;6.12;;;;;;;11.56;100.00;97598.38;4077629;85;21061;-85
2022/09/29 00:47:05;;;;;;;11.23;6.93;;;;;;;11.58;100.00;97604.23;4105677;85;21063;-84
2022/09/29 00:53:11;;;;;;;13.58;7.78;;;;;;;11.55;100.00;97600.16;4015933;87;21776;-84
2022/09/29 00:59:23;;;;;;;13.00;8.08;;;;;;;11.54;100.00;97592.53;4090279;85;21025;-84
2022/09/29 01:05:35;;;;;;;12.55;7.70;;;;;;;11.51;100.00;97604.32;4146061;83;20974;-84
2022/09/29 01:11:37;;;;;;;13.00;7.22;;;;;;;11.47;100.00;97615.16;4168518;84;21019;-84
2022/09/29 01:17:38;;;;;;;11.88;6.62;;;;;;;11.43;100.00;97621.30;4285794;83;20949;-84
2022/09/29 01:24:00;;;;;;;11.88;6.78;;;;;;;11.36;100.00;97637.23;4214743;82;21833;-84
2022/09/29 01:30:22;;;;;;;11.70;7.40;;;;;;;11.30;100.00;97651.21;4212172;82;21425;-84
2022/09/29 01:36:33;;;;;;;12.88;7.20;;;;;;;11.24;100.00;97647.38;4185059;83;21623;-84
2022/09/29 01:42:42;;;;;;;11.43;7.15;;;;;;;11.17;100.00;97639.83;4121909;83;21014;-84
2022/09/29 01:48:51;;;;;;;11.05;6.70;;;;;;;11.14;100.00;97652.39;4175833;83;21102;-84
2022/09/29 01:55:04;;;;;;;9.75;6.20;;;;;;;11.08;100.00;97651.30;4212361;83;20987;-84
2022/09/29 02:01:11;;;;;;;10.13;6.35;;;;;;;11.00;100.00;97653.34;4170094;83;21547;-84
2022/09/29 02:07:16;;;;;;;;;;;;;;;10.95;100.00;97653.79;4222293;83;21032;-83
2022/09/29 02:13:20;;;;;;;11.68;7.58;;;;;;;10.87;100.00;97666.01;4249085;83;20116;-84
2022/09/29 02:19:30;;;;;;;12.53;7.42;;;;;;;10.76;100.00;97667.30;4165323;83;20964;-84
2022/09/29 02:25:37;;;;;;;12.33;8.15;;;;;;;10.66;100.00;97669.57;4207465;83;21922;-84
2022/09/29 02:31:51;;;;;;;;;;;;;;;10.56;100.00;97668.50;4165474;83;21899;-84
2022/09/29 02:38:04;;;;;;;12.40;7.37;;;;;;;10.51;100.00;97676.34;4180151;83;20108;-84
2022/09/29 02:44:44;;;;;;;8.98;6.62;;;;;;;10.47;100.00;97678.36;4192532;82;21011;-84
2022/09/29 02:51:22;;;;;;;10.63;7.25;;;;;;;10.49;100.00;97671.89;4188496;84;21030;-83
2022/09/29 02:57:41;;;;;;;13.83;7.47;;;;;;;10.55;100.00;97673.00;4212492;83;21002;-83
2022/09/29 03:03:43;;;;;;;8.68;6.55;;;;;;;10.50;100.00;97676.96;4140221;83;21529;-85
2022/09/29 03:09:44;;;;;;;8.48;5.75;;;;;;;10.34;100.00;97675.92;4205202;82;21056;-84
2022/09/29 03:15:59;;;;;;;9.73;5.40;;;;;;;10.34;100.00;97667.72;4201621;82;39833;-85
2022/09/29 03:22:01;;;;;;;9.60;6.33;;;;;;;10.29;100.00;97668.94;4262988;83;20966;-85
2022/09/29 03:28:03;;;;;;;8.80;6.67;;;;;;;10.31;100.00;97669.31;4207765;83;21083;-85
2022/09/29 03:34:08;;;;;;;11.20;7.45;;;;;;;10.28;100.00;97669.34;4215323;83;20977;-85
2022/09/29 03:40:10;;;;;;;12.80;7.22;;;;;;;10.17;100.00;97668.08;4221849;83;21491;-83
2022/09/29 03:46:11;;;;;;;9.30;6.67;;;;;;;10.14;100.00;97668.09;4251777;81;21011;-82
2022/09/29 03:52:14;;;;;;;12.03;7.08;;;;;;;10.09;100.00;97664.42;4284904;81;21062;-83
2022/09/29 03:58:16;;;;;;;10.43;6.30;;;;;;;10.07;100.00;97666.77;4289224;81;21106;-83
2022/09/29 04:04:18;;;;;;;9.53;6.90;;;;;;;10.03;100.00;97675.00;4274268;81;21522;-83
2022/09/29 04:10:19;;;;;;;10.40;6.45;;;;;;;10.07;100.00;97668.14;4258233;81;21656;-84
2022/09/29 04:16:26;;;;;;;10.30;6.35;;;;;;;10.03;100.00;97664.64;4307381;81;21074;-84
2022/09/29 04:22:27;;;;;;;15.30;8.43;;;;;;;9.87;100.00;97661.63;4278874;80;21179;-84
2022/09/29 04:28:35;;;;;;;12.53;7.22;;;;;;;9.73;100.00;97661.16;4285135;81;21968;-85
2022/09/29 04:34:36;;;;;;;9.60;6.65;;;;;;;9.70;100.00;97666.05;4365329;81;20995;-83
2022/09/29 04:40:39;;;;;;;14.78;8.10;;;;;;;9.69;100.00;97663.73;4289299;81;21019;-84
2022/09/29 04:46:41;;;;;;;11.48;6.80;;;;;;;9.77;100.00;97680.27;4286802;81;21085;-84
2022/09/29 04:52:44;;;;;;;15.00;8.13;;;;;;;9.88;100.00;97684.47;4299482;81;21561;-84
2022/09/29 04:58:45;;;;;;;9.65;6.53;;;;;;;9.88;100.00;97685.83;4320517;81;21400;-84
2022/09/29 05:04:48;;;;;;;10.32;6.62;;;;;;;9.97;100.00;97710.78;4290675;81;21530;-84
2022/09/29 05:10:51;;;;;;;8.00;5.40;;;;;;;10.01;100.00;97714.83;4305939;80;21003;-83
2022/09/29 05:16:56;;;;;;;9.58;6.25;;;;;;;9.98;100.00;97723.84;4308510;81;21010;-84
2022/09/29 05:22:58;;;;;;;9.60;6.50;;;;;;;9.89;100.00;97720.20;4288959;81;21059;-84
2022/09/29 05:29:00;;;;;;;8.98;7.00;;;;;;;9.88;100.00;97727.44;4285520;82;20985;-83
2022/09/29 05:35:02;;;;;;;10.25;6.30;;;;;;;9.87;100.00;97722.55;4269025;82;21542;-85
2022/09/29 05:41:09;;;;;;;7.95;5.78;;;;;;;9.91;100.00;97723.91;4237527;82;22230;-85
2022/09/29 05:47:11;;;;;;;8.45;6.58;;;;;;;9.86;100.00;97727.84;4256328;82;20986;-84
2022/09/29 05:53:12;;;;;;;8.83;5.87;;;;;;;9.82;100.00;97731.77;4262121;82;21470;-84
2022/09/29 05:59:15;;;;;;;6.70;5.03;;;;;;;9.83;100.00;97730.01;4222624;82;20999;-84
2022/09/29 06:05:17;;;;;;;7.55;5.37;;;;;;;9.89;100.00;97734.45;4239239;82;21031;-84
2022/09/29 06:11:27;;;;;;;7.47;5.05;;;;;;;9.94;100.00;97738.92;4243397;82;21048;-84
2022/09/29 06:17:30;;;;;;;7.85;5.20;;;;;;;9.95;100.00;97741.05;4315614;82;20994;-84
2022/09/29 06:23:33;;;;;;;8.70;5.58;;;;;;;10.05;100.00;97739.63;4247890;82;20980;-85
2022/09/29 06:29:34;;;;;;;8.90;6.45;;;;;;;10.09;100.00;97745.87;4236812;82;21003;-84
2022/09/29 06:41:58;;;;;;;8.85;5.00;;;;;;;10.08;100.00;97738.86;4262350;82;21107;-84
2022/09/29 06:48:02;;;;;;;9.85;6.28;;;;;;;9.95;100.00;97726.01;4268816;81;21650;-85
2022/09/29 06:54:04;;;;;;;9.35;6.67;;;;;;;10.03;100.00;97741.19;4262491;82;20994;-84
2022/09/29 07:00:07;;;;;;;8.55;6.55;;;;;;;10.10;100.00;97748.02;4270803;82;21069;-83
2022/09/29 07:06:10;;;;;;;8.93;6.75;;;;;;;10.14;100.00;97738.61;4259166;82;20987;-84
2022/09/29 07:12:20;;;;;;;13.05;9.73;;;;;;;10.17;100.00;97729.60;4273623;82;21041;-84
2022/09/29 07:18:23;;;;;;;17.95;9.13;;;;;;;10.27;100.00;97744.37;4322238;82;21092;-84
2022/09/29 07:24:25;;;;;;;8.18;6.05;;;;;;;10.34;100.00;97746.47;4263979;82;21451;-85
2022/09/29 07:30:27;;;;;;;9.40;6.08;;;;;;;10.33;100.00;97748.23;4255815;82;21020;-84
2022/09/29 07:36:30;;;;;;;9.83;5.05;;;;;;;10.26;100.00;97756.48;4252490;81;21042;-85
2022/09/29 07:42:55;;;;;;;8.83;5.65;;;;;;;10.36;100.00;97763.27;4261074;82;21091;-85
2022/09/29 07:48:56;;;;;;;9.58;5.40;;;;;;;10.41;100.00;97777.09;4250382;81;20999;-84
2022/09/29 07:54:57;;;;;;;10.93;6.08;;;;;;;10.39;100.00;97783.55;4150867;83;21006;-84
2022/09/29 08:01:02;;;;;;;7.58;6.00;;;;;;;10.35;100.00;97781.45;4257810;82;21044;-84
2022/09/29 08:07:03;;;;;;;9.48;6.35;;;;;;;10.39;100.00;97784.92;4269228;82;20999;-84
2022/09/29 08:13:06;;;;;;;7.30;5.92;;;;;;;10.36;100.00;97785.14;4253428;82;21012;-85
2022/09/29 08:19:07;;;;;;;10.00;6.95;;;;;;;10.43;100.00;97791.16;4224794;82;21062;-85
2022/09/29 08:25:09;;;;;;;9.33;6.08;;;;;;;10.56;100.00;97798.47;4243885;83;21002;-84
2022/09/29 08:31:23;;;;;;;10.28;5.97;;;;;;;10.63;100.00;97799.77;4228251;82;20979;-85
2022/09/29 08:37:26;;;;;;;6.50;3.85;;;;;;;10.72;100.00;97805.58;4258781;82;21480;-85
2022/09/29 08:43:37;;;;;;;5.28;4.15;;;;;;;10.72;100.00;97807.53;4272401;82;21470;-84
2022/09/29 08:49:44;;;;;;;6.35;3.77;;;;;;;10.75;100.00;97812.98;4254508;82;21059;-84
2022/09/29 08:55:53;;;;;;;5.15;3.08;;;;;;;10.70;100.00;97821.62;4314202;80;21452;-83
2022/09/29 09:02:18;;;;;;;6.05;3.35;;;;;;;10.80;100.00;97807.66;4257127;82;22257;-84
2022/09/29 09:08:48;;;;;;;12.95;3.83;;;;;;;11.01;100.00;97817.81;4295989;82;20985;-83
2022/09/29 09:15:14;;;;;;;3.17;2.40;;;;;;;11.27;100.00;97819.72;4248606;82;21530;-84
2022/09/29 09:21:42;;;;;;;8.68;3.42;;;;;;;11.61;100.00;97827.36;4258277;82;20991;-84
2022/09/29 09:27:49;;;;;;;4.80;3.22;;;;;;;11.74;100.00;97824.31;4268308;81;21042;-84
2022/09/29 09:34:20;;;;;;;5.62;2.10;;;;;;;11.72;100.00;97826.09;4255804;82;21447;-84
2022/09/29 09:40:45;;;;;;;3.27;2.12;;;;;;;11.64;100.00;97816.40;4254046;81;20979;-84
2022/09/29 09:47:00;;;;;;;2.62;1.57;;;;;;;11.68;100.00;97823.97;4268200;81;21652;-84
2022/09/29 09:53:11;;;;;;;3.27;1.17;;;;;;;11.80;100.00;97837.75;4291635;80;21007;-83
2022/09/29 09:59:27;;;;;;;2.67;0.93;;;;;;;11.90;100.00;97828.63;4200432;82;21104;-84
2022/09/29 10:05:40;;;;;;;2.15;1.30;;;;;;;12.02;100.00;97838.45;4188455;83;21005;-85
2022/09/29 10:11:43;;;;;;;4.72;1.20;;;;;;;11.94;100.00;97846.58;4210697;83;21051;-84
2022/09/29 10:17:48;;;;;;;2.10;1.40;;;;;;;12.00;100.00;97840.03;4216279;83;21026;-84
2022/09/29 10:23:51;;;;;;;4.10;1.37;;;;;;;11.90;100.00;97845.08;4217476;83;21109;-84
2022/09/29 10:29:55;;;;;;;1.80;1.32;;;;;;;11.86;100.00;97847.86;4213058;83;21034;-84
2022/09/29 10:36:09;;;;;;;1.90;1.00;;;;;;;11.78;100.00;97852.45;4293284;81;20991;-84
2022/09/29 10:42:34;;;;;;;2.55;1.35;;;;;;;11.84;100.00;97858.45;4264818;82;21030;-84
2022/09/29 10:48:36;;;;;;;2.15;1.30;;;;;;;11.85;100.00;97852.37;4260291;82;21568;-83
2022/09/29 10:54:41;;;;;;;3.10;1.70;;;;;;;11.92;100.00;97859.13;4262497;82;21046;-84
2022/09/29 11:00:43;;;;;;;3.55;1.55;;;;;;;11.97;100.00;97869.66;4257328;82;21591;-82
2022/09/29 11:06:46;;;;;;;2.60;1.80;;;;;;;11.92;100.00;97875.59;4254019;81;21410;-83
2022/09/29 11:12:48;;;;;;;3.37;1.60;;;;;;;11.83;100.00;97880.80;4268497;82;21008;-83
2022/09/29 11:18:54;;;;;;;2.40;1.35;;;;;;;11.85;100.00;97884.70;4246346;82;21006;-83
2022/09/29 11:25:31;;;;;;;2.22;1.65;;;;;;;11.92;100.00;97888.72;4256634;82;21992;-83
2022/09/29 11:31:46;;;;;;;2.27;1.33;;;;;;;12.01;100.00;97884.88;4264463;82;21016;-83
2022/09/29 11:38:18;;;;;;;3.02;1.62;;;;;;;12.19;100.00;97888.78;4262513;81;21026;-83
2022/09/29 11:44:49;;;;;;;4.03;1.37;;;;;;;12.30;100.00;97883.93;4290323;81;21035;-81
2022/09/29 11:51:23;;;;;;;1.92;1.47;;;;;;;12.47;100.00;97884.28;4283565;81;21391;-82
2022/09/29 11:57:52;;;;;;;4.22;1.67;;;;;;;12.34;98.64;97883.30;4150011;84;21576;-81
2022/09/29 12:04:39;;;;;;;2.37;1.45;;;;;;;12.32;99.08;97879.57;4158640;84;21012;-80
2022/09/29 12:10:58;;;;;;;4.33;1.43;;;;;;;12.48;98.88;97892.09;4145531;84;21842;-80
2022/09/29 12:17:11;;;;;;;1.70;1.05;;;;;;;12.41;98.53;97896.33;4286481;81;21650;-82
2022/09/29 12:23:16;;;;;;;1.47;0.82;;;;;;;12.44;98.18;97894.71;4286787;81;21015;-81
2022/09/29 12:29:22;;;;;;;2.15;1.20;;;;;;;12.34;97.54;97892.91;4295745;80;22317;-81
2022/09/29 12:35:39;;;;;;;5.50;1.60;;;;;;;12.24;97.75;97909.69;4293889;81;21011;-83
2022/09/29 12:41:46;;;;;;;1.67;0.90;;;;;;;12.14;97.39;97916.08;4291612;81;21915;-83
2022/09/29 12:48:05;;;;;;;1.40;1.10;;;;;;;12.13;97.47;97905.52;4286327;81;21025;-83
2022/09/29 12:54:21;;;;;;;4.55;1.20;;;;;;;12.10;97.45;97911.83;4285815;81;21970;-84
2022/09/29 13:00:24;;;;;;;2.58;1.75;;;;;;;12.24;97.33;97916.55;4295264;81;21048;-83
2022/09/29 13:06:43;;;;;;;2.72;1.30;;;;;;;12.13;96.49;97919.23;4290579;81;21011;-82
2022/09/29 13:13:36;;;;;;;2.62;1.20;;;;;;;12.15;96.60;97927.84;4243481;81;21138;-83
2022/09/29 13:19:53;;;;;;;4.15;1.32;;;;;;;12.24;96.10;97928.11;4294614;80;21361;-82
2022/09/29 13:26:35;;;;;;;1.10;0.95;;;;;;;12.22;95.66;97928.52;4312288;81;21018;-82
2022/09/29 13:32:47;;;;;;;2.20;1.07;;;;;;;12.17;95.72;97928.97;4298053;81;21040;-82
2022/09/29 13:38:57;;;;;;;9.93;4.78;;;;;;;12.18;95.53;97933.88;4132032;84;20972;-82
2022/09/29 13:45:23;;;;;;;2.72;1.35;;;;;;;12.05;95.31;97939.70;4090486;85;21166;-83
2022/09/29 13:51:42;;;;;;;4.25;2.05;;;;;;;12.04;95.38;97933.42;4194555;83;21033;-83
2022/09/29 13:57:51;;;;;;;3.83;1.25;;;;;;;11.99;95.32;97934.48;4176123;84;20999;-83
2022/09/29 14:03:54;;;;;;;3.12;1.60;;;;;;;12.04;95.59;97938.16;4221907;83;21086;-83
2022/09/29 14:09:56;;;;;;;3.90;1.70;;;;;;;12.10;95.98;97938.67;4222388;83;21023;-83
2022/09/29 14:16:34;;;;;;;2.60;1.75;;;;;;;12.15;95.86;97942.31;4218208;83;20983;-84
2022/09/29 14:22:44;;;;;;;3.70;1.60;;;;;;;12.15;95.27;97949.78;4193798;83;21000;-83
2022/09/29 14:28:46;;;;;;;4.15;2.20;;;;;;;12.12;95.36;97953.34;4222705;83;20998;-83
2022/09/29 14:34:52;;;;;;;4.58;2.33;;;;;;;12.15;95.43;97958.02;4224655;81;20963;-83
2022/09/29 14:41:09;;;;;;;3.70;1.62;;;;;;;12.21;95.68;97970.09;4158781;82;21694;-82
2022/09/29 14:54:14;;;;;;;4.85;2.10;;;;;;;12.27;94.67;97972.56;4120560;85;20161;-82
2022/09/29 15:00:22;;;;;;;8.15;3.05;;;;;;;12.24;94.61;97976.13;4003243;87;21083;-82
2022/09/29 15:06:27;;;;;;;3.42;1.92;;;;;;;12.31;94.96;97981.52;4164879;84;20980;-82
2022/09/29 15:12:34;;;;;;;3.87;2.40;;;;;;;12.34;94.45;97991.70;4172253;84;21070;-83
2022/09/29 15:18:50;;;;;;;6.67;2.10;;;;;;;12.28;94.37;97994.69;4175211;84;21059;-83
2022/09/29 15:25:33;;;;;;;6.35;2.30;;;;;;;12.20;94.35;98002.84;4167151;84;21055;-82
2022/09/29 15:31:35;;;;;;;3.83;2.35;;;;;;;12.15;94.36;98006.02;4167759;84;22039;-84
2022/09/29 15:37:51;;;;;;;4.90;2.55;;;;;;;12.10;94.47;98002.34;4188221;84;21022;-83
2022/09/29 15:43:59;;;;;;;10.13;4.10;;;;;;;12.01;94.93;98000.69;4153247;83;21983;-82
2022/09/29 15:50:06;;;;;;;8.75;4.15;;;;;;;11.94;95.14;98008.97;4147070;84;21007;-82
2022/09/29 15:56:09;;;;;;;8.88;4.30;;;;;;;11.86;95.49;98015.12;4160310;84;20999;-82
2022/09/29 16:02:31;;;;;;;10.88;4.92;;;;;;;11.79;95.75;98010.31;4153948;84;21074;-82
2022/09/29 16:08:38;;;;;;;8.05;4.30;;;;;;;11.72;95.83;98018.00;4141647;84;21085;-82
2022/09/29 16:14:40;;;;;;;6.28;3.85;;;;;;;11.68;95.73;98013.13;4093282;85;21094;-83
2022/09/29 16:20:43;;;;;;;7.42;3.40;;;;;;;11.62;95.59;98028.42;4078981;85;21043;-82
2022/09/29 16:26:51;;;;;;;8.23;4.03;;;;;;;11.51;95.88;98026.36;4227527;82;21519;-82
2022/09/29 16:32:57;;;;;;;8.70;4.03;;;;;;;11.50;96.17;98037.73;4220512;84;21035;-82
2022/09/29 16:39:01;;;;;;;8.43;4.05;;;;;;;11.45;96.09;98038.19;4237271;83;21047;-83
2022/09/29 16:45:06;;;;;;;9.38;5.33;;;;;;;11.38;96.19;98039.59;4153719;84;21003;-84
2022/09/29 16:51:16;;;;;;;9.28;5.92;;;;;;;11.32;96.27;98050.21;4147927;84;20998;-82
2022/09/29 16:57:33;;;;;;;12.23;6.33;;;;;;;11.23;96.33;98066.91;4026370;84;45551;-82
2022/09/29 17:03:36;;;;;;;10.23;6.28;;;;;;;11.16;96.66;98068.30;4012125;87;21099;-82
2022/09/29 17:09:38;;;;;;;11.12;7.22;;;;;;;11.10;97.14;98072.07;4009827;87;21076;-82
2022/09/29 17:15:40;;;;;;;12.95;7.53;;;;;;;10.98;97.09;98073.88;4008220;87;21616;-83
2022/09/29 17:21:41;;;;;;;12.00;7.35;;;;;;;10.91;97.11;98076.09;4013903;87;21067;-82
2022/09/29 17:34:06;;;;;;;12.82;7.08;;;;;;;10.80;97.53;98098.62;4010627;87;21076;-82
2022/09/29 17:40:25;;;;;;;19.75;10.80;;;;;;;10.74;97.71;98117.22;4015000;87;21949;-82
2022/09/29 17:46:28;;;;;;;20.85;11.35;;;;;;;10.68;98.12;98120.17;4009822;87;21034;-82
2022/09/29 17:52:30;;;;;;;17.62;9.95;;;;;;;10.67;98.31;98108.44;4020954;87;21000;-82
2022/09/29 17:58:32;;;;;;;18.98;10.85;;;;;;;10.66;98.41;98122.52;4024655;87;21473;-82
2022/09/29 18:04:34;;;;;;;13.45;8.88;;;;;;;10.62;98.68;98114.31;3944978;89;21116;-82
2022/09/29 18:10:44;;;;;;;13.05;9.48;;;;;;;10.57;99.11;98117.45;3911597;86;9999659;-82
2022/09/29 18:16:45;;;;;;;14.53;9.60;;;;;;;10.52;99.18;98121.95;3919601;89;21043;-82
2022/09/29 18:22:48;;;;;;;14.43;10.88;;;;;;;10.50;99.56;98113.96;4029231;87;21084;-82
2022/09/29 18:28:50;;;;;;;16.65;10.38;;;;;;;10.53;100.00;98106.33;4031758;87;21639;-82
2022/09/29 18:34:51;;;;;;;14.80;10.15;;;;;;;10.50;100.00;98107.12;4028501;87;21010;-82
2022/09/29 18:40:54;;;;;;;22.80;9.53;;;;;;;10.40;100.00;98114.75;4026218;86;21468;-82
2022/09/29 18:46:56;;;;;;;13.85;9.78;;;;;;;10.31;100.00;98107.55;4035895;86;21990;-82
2022/09/29 18:53:02;;;;;;;13.72;9.05;;;;;;;10.20;100.00;98088.44;4039381;86;21576;-82
2022/09/29 18:59:04;;;;;;;14.83;10.23;;;;;;;10.13;100.00;98098.00;4033415;86;20996;-82
2022/09/29 19:05:06;;;;;;;19.98;11.85;;;;;;;10.05;100.00;98094.29;4040867;88;20998;-82
2022/09/29 19:11:19;;;;;;;22.87;14.38;;;;;;;9.95;100.00;98101.91;3924350;86;10000098;-82
2022/09/29 19:17:22;;;;;;;22.75;14.35;;;;;;;9.89;100.00;98115.77;4040716;86;21069;-83
2022/09/29 19:23:25;;;;;;;25.40;16.48;;;;;;;9.75;100.00;98123.40;4039507;86;21092;-82
2022/09/29 19:29:28;;;;;;;19.23;13.75;;;;;;;9.58;100.00;98130.39;4039697;86;21048;-82
2022/09/29 19:35:30;;;;;;;22.62;12.63;;;;;;;9.47;100.00;98132.33;4037695;86;21961;-82
2022/09/29 19:41:31;;;;;;;19.05;12.75;;;;;;;9.43;100.00;98147.95;4038733;86;21533;-83
2022/09/29 19:47:34;;;;;;;18.55;12.05;;;;;;;9.41;100.00;98157.70;4045200;86;21513;-82
2022/09/29 19:53:37;;;;;;;20.17;12.50;;;;;;;9.24;100.00;98165.24;4047825;86;21107;-82
2022/09/29 19:59:40;;;;;;;37.95;21.55;;;;;;;9.09;100.00;98168.53;4044387;86;20980;-82
2022/09/29 20:05:42;;;;;;;26.62;17.30;;;;;;;8.99;100.00;98162.44;4047941;86;21012;-82
2022/09/29 20:11:48;;;;;;;23.83;13.70;;;;;;;8.93;100.00;98175.47;3934688;86;10000409;-82
2022/09/29 20:17:50;;;;;;;20.17;12.53;;;;;;;8.86;100.00;98169.98;4051261;86;22009;-82
2022/09/29 20:23:52;;;;;;;21.33;12.25;;;;;;;8.83;100.00;98172.13;4047624;86;21011;-82
2022/09/29 20:29:53;;;;;;;20.97;13.10;;;;;;;8.85;100.00;98182.84;4048594;86;21099;-82
2022/09/29 20:35:55;;;;;;;21.68;14.87;;;;;;;8.77;100.00;98188.06;4051207;86;22090;-82
2022/09/29 20:41:57;;;;;;;26.40;17.67;;;;;;;8.69;100.00;98185.70;4047898;86;21016;-82
2022/09/29 20:47:58;;;;;;;22.00;15.15;;;;;;;8.68;100.00;98190.36;4036675;86;21036;-82
2022/09/29 20:54:00;;;;;;;23.30;15.35;;;;;;;8.66;100.00;98191.91;4035753;86;21679;-82
2022/09/29 21:00:02;;;;;;;24.05;15.30;;;;;;;8.59;100.00;98207.66;4035314;86;21071;-82
2022/09/29 21:06:05;;;;;;;23.27;15.15;;;;;;;8.50;100.00;98214.61;4032507;86;21087;-82
2022/09/29 21:12:06;;;;;;;27.70;15.72;;;;;;;8.37;100.00;98226.97;4033126;86;21717;-83
2022/09/29 21:18:10;;;;;;;26.60;16.93;;;;;;;8.37;100.00;98235.94;4032957;86;21032;-82
2022/09/29 21:24:13;;;;;;;27.45;18.55;;;;;;;8.41;100.00;98250.98;4034441;86;21067;-82
2022/09/29 21:30:15;;;;;;;25.60;17.37;;;;;;;8.47;100.00;98255.67;4033877;86;21642;-82
2022/09/29 21:36:16;;;;;;;22.65;16.35;;;;;;;8.46;100.00;98254.13;4039632;86;21104;-82
2022/09/29 21:42:18;;;;;;;24.05;16.62;;;;;;;8.48;100.00;98245.56;4041816;86;21040;-82
2022/09/29 21:48:19;;;;;;;26.48;18.12;;;;;;;8.50;100.00;98237.22;4045453;86;21031;-82
2022/09/29 21:54:23;;;;;;;28.50;17.20;;;;;;;8.51;100.00;98230.59;4041426;86;21087;-82
2022/09/29 22:00:25;;;;;;;24.67;16.67;;;;;;;8.58;100.00;98235.31;4041422;86;21043;-82
2022/09/29 22:06:30;;;;;;;24.67;16.85;;;;;;;8.62;100.00;98226.56;4037492;86;21059;-82
2022/09/29 22:12:31;;;;;;;25.82;18.55;;;;;;;8.65;100.00;98235.34;4037514;86;21956;-83
2022/09/29 22:18:35;;;;;;;27.70;18.77;;;;;;;8.63;100.00;98235.73;4015121;86;21019;-82
2022/09/29 22:24:37;;;;;;;25.88;18.48;;;;;;;8.65;100.00;98245.69;4021964;87;21010;-82
2022/09/29 22:30:39;;;;;;;26.30;18.40;;;;;;;8.65;100.00;98239.44;4052779;86;21575;-82
2022/09/29 22:36:40;;;;;;;29.25;19.52;;;;;;;8.67;100.00;98258.38;4029377;87;22109;-82
2022/09/29 22:42:42;;;;;;;30.57;20.32;;;;;;;8.71;100.00;98258.38;3959753;88;21075;-84
2022/09/29 22:48:43;;;;;;;26.42;19.05;;;;;;;8.73;100.00;98244.58;3994789;88;21087;-81
2022/09/29 22:54:45;;;;;;;32.28;20.77;;;;;;;8.77;100.00;98250.83;3986313;88;21484;-82
2022/09/29 23:00:46;;;;;;;28.55;21.23;;;;;;;8.82;100.00;98253.77;4039025;87;21058;-82
2022/09/29 23:06:48;;;;;;;27.27;20.08;;;;;;;8.86;100.00;98259.48;4045402;86;21072;-82
2022/09/29 23:12:50;;;;;;;31.12;20.88;;;;;;;8.88;100.00;98258.50;4033870;87;21063;-83
2022/09/29 23:18:54;;;;;;;31.65;22.07;;;;;;;8.91;100.00;98265.16;4041769;86;21075;-82
2022/09/29 23:24:55;;;;;;;29.32;21.60;;;;;;;8.96;100.00;98265.57;4028640;87;21565;-82
2022/09/29 23:31:03;;;;;;;32.85;22.77;;;;;;;8.99;100.00;98264.04;4039787;86;21066;-82
2022/09/29 23:37:06;;;;;;;31.00;22.32;;;;;;;9.01;100.00;98254.86;4040798;86;21531;-83
2022/09/29 23:43:07;;;;;;;37.10;23.25;;;;;;;9.00;100.00;98259.56;4027582;87;21632;-82
2022/09/29 23:49:16;;;;;;;35.68;23.75;;;;;;;9.06;100.00;98259.39;4030886;86;21051;-82
2022/09/29 23:55:17;;;;;;;37.63;23.45;;;;;;;9.10;100.00;98259.39;4020760;86;21044;-82
